CCA864 ZUCK-VTBS
Flight info
| Callsign | CCA864 |
|---|---|
| Flight time | N/A |
| Altitude | 37100 |
| Route | K0902S1130 NUDVO1Z NUDVO W30 URGUS/K0904S1160 W30 XFA A581 BIDRU/K0911S1130 A581 SAGAG/N0489F380 B218 LPB B346 NOBER NORTA1C |
| Aircraft | B77W/H-SDE1E2E3FGHIJ2J3J4J5M1RWXY/LB1D1 |
Departure
| Time | 2026-04-28 12:53 |
|---|---|
| Airport | Chongqing Jiangbei International Airport (ZUCK) |
Arrival
| Time | N/A |
|---|---|
| Airport | Suvarnabhumi Airport (VTBS) |
| Time | Latitude | Longitude | Altitude | Speed | Heading |
|---|---|---|---|---|---|
| 2026-04-28 12:42 | 29.71590 | 106.65708 | 1350 ft | 0 kts | 291° |
| 2026-04-28 12:44 | 29.71584 | 106.65727 | 1350 ft | 4 kts | 291° |
| 2026-04-28 12:44 | 29.71575 | 106.65752 | 1350 ft | 4 kts | 283° |
| 2026-04-28 12:45 | 29.71578 | 106.65776 | 1350 ft | 4 kts | 219° |
| 2026-04-28 12:45 | 29.71601 | 106.65790 | 1350 ft | 4 kts | 198° |
| 2026-04-28 12:45 | 29.71613 | 106.65794 | 1350 ft | 1 kts | 197° |
| 2026-04-28 12:45 | 29.71613 | 106.65795 | 1350 ft | 0 kts | 197° |
| 2026-04-28 12:48 | 29.71611 | 106.65794 | 1350 ft | 1 kts | 197° |
| 2026-04-28 12:48 | 29.71583 | 106.65784 | 1350 ft | 5 kts | 197° |
| 2026-04-28 12:49 | 29.71558 | 106.65781 | 1349 ft | 6 kts | 173° |
| 2026-04-28 12:49 | 29.71533 | 106.65813 | 1348 ft | 6 kts | 107° |
| 2026-04-28 12:49 | 29.71511 | 106.65903 | 1344 ft | 11 kts | 106° |
| 2026-04-28 12:49 | 29.71495 | 106.65966 | 1342 ft | 11 kts | 106° |
| 2026-04-28 12:50 | 29.71485 | 106.66004 | 1345 ft | 0 kts | 106° |
| 2026-04-28 12:51 | 29.71483 | 106.66013 | 1343 ft | 2 kts | 106° |
| 2026-04-28 12:52 | 29.71475 | 106.66043 | 1346 ft | 6 kts | 106° |
| 2026-04-28 12:52 | 29.71460 | 106.66103 | 1345 ft | 9 kts | 103° |
| 2026-04-28 12:52 | 29.71492 | 106.66162 | 1343 ft | 9 kts | 21° |
| 2026-04-28 12:52 | 29.71568 | 106.66188 | 1345 ft | 15 kts | 18° |
| 2026-04-28 12:53 | 29.71797 | 106.66268 | 1343 ft | 65 kts | 16° |
| 2026-04-28 12:53 | 29.72477 | 106.66501 | 1334 ft | 138 kts | 17° |
| 2026-04-28 12:53 | 29.73575 | 106.66884 | 1427 ft | 182 kts | 20° |
| 2026-04-28 12:53 | 29.74786 | 106.67244 | 2101 ft | 169 kts | 2° |
| 2026-04-28 12:54 | 29.75880 | 106.67477 | 2937 ft | 160 kts | 33° |
| 2026-04-28 12:54 | 29.76513 | 106.68530 | 3456 ft | 165 kts | 69° |
| 2026-04-28 12:54 | 29.77116 | 106.69648 | 3848 ft | 177 kts | 31° |
| 2026-04-28 12:54 | 29.78312 | 106.70221 | 4115 ft | 198 kts | 24° |
| 2026-04-28 12:55 | 29.79617 | 106.71009 | 4334 ft | 225 kts | 30° |
| 2026-04-28 12:55 | 29.81050 | 106.71981 | 4578 ft | 249 kts | 31° |
| 2026-04-28 12:55 | 29.82573 | 106.73033 | 5313 ft | 259 kts | 31° |
| 2026-04-28 12:55 | 29.84154 | 106.74128 | 6062 ft | 269 kts | 31° |
| 2026-04-28 12:56 | 29.85742 | 106.75229 | 6684 ft | 270 kts | 31° |
| 2026-04-28 12:56 | 29.87356 | 106.76347 | 7293 ft | 273 kts | 31° |
| 2026-04-28 12:56 | 29.88899 | 106.77615 | 7862 ft | 272 kts | 48° |
| 2026-04-28 12:56 | 29.89887 | 106.79464 | 8486 ft | 273 kts | 70° |
| 2026-04-28 12:57 | 29.90426 | 106.81568 | 9140 ft | 274 kts | 79° |
| 2026-04-28 12:57 | 29.90336 | 106.83745 | 9772 ft | 283 kts | 105° |
| 2026-04-28 12:57 | 29.89660 | 106.85922 | 10438 ft | 293 kts | 108° |
| 2026-04-28 12:57 | 29.88968 | 106.88151 | 11027 ft | 296 kts | 107° |
| 2026-04-28 12:58 | 29.88306 | 106.90413 | 11645 ft | 298 kts | 105° |
| 2026-04-28 12:58 | 29.87671 | 106.92702 | 12272 ft | 302 kts | 105° |
| 2026-04-28 12:58 | 29.87043 | 106.95027 | 12913 ft | 306 kts | 105° |
| 2026-04-28 12:58 | 29.86415 | 106.97381 | 13553 ft | 309 kts | 104° |
| 2026-04-28 12:59 | 29.85738 | 106.99752 | 14153 ft | 312 kts | 112° |
| 2026-04-28 12:59 | 29.84432 | 107.01771 | 14715 ft | 320 kts | 141° |
| 2026-04-28 12:59 | 29.82457 | 107.02944 | 15313 ft | 324 kts | 168° |
| 2026-04-28 12:59 | 29.80216 | 107.03047 | 15724 ft | 338 kts | 192° |
| 2026-04-28 13:00 | 29.77878 | 107.02287 | 15921 ft | 361 kts | 200° |
| 2026-04-28 13:00 | 29.75388 | 107.01358 | 16122 ft | 389 kts | 199° |
| 2026-04-28 13:00 | 29.72731 | 107.00404 | 16472 ft | 408 kts | 199° |
| 2026-04-28 13:00 | 29.70000 | 106.99354 | 17164 ft | 416 kts | 204° |
| 2026-04-28 13:01 | 29.67378 | 106.98015 | 18015 ft | 419 kts | 208° |
| 2026-04-28 13:01 | 29.64739 | 106.96524 | 18837 ft | 422 kts | 209° |
| 2026-04-28 13:01 | 29.62101 | 106.95028 | 19687 ft | 422 kts | 208° |
| 2026-04-28 13:01 | 29.59447 | 106.93561 | 20575 ft | 422 kts | 208° |
| 2026-04-28 13:02 | 29.56791 | 106.92126 | 21451 ft | 422 kts | 208° |
| 2026-04-28 13:02 | 29.54114 | 106.90701 | 22290 ft | 424 kts | 207° |
| 2026-04-28 13:02 | 29.51457 | 106.89293 | 22968 ft | 428 kts | 207° |
| 2026-04-28 13:02 | 29.48732 | 106.87859 | 23614 ft | 433 kts | 206° |
| 2026-04-28 13:03 | 29.45931 | 106.86527 | 24165 ft | 437 kts | 204° |
| 2026-04-28 13:03 | 29.43075 | 106.85269 | 24719 ft | 440 kts | 203° |
| 2026-04-28 13:03 | 29.40191 | 106.84031 | 25259 ft | 443 kts | 203° |
| 2026-04-28 13:03 | 29.37321 | 106.82800 | 25768 ft | 447 kts | 203° |
| 2026-04-28 13:04 | 29.34399 | 106.81531 | 26272 ft | 450 kts | 203° |
| 2026-04-28 13:04 | 29.31461 | 106.80248 | 26771 ft | 452 kts | 203° |
| 2026-04-28 13:04 | 29.28498 | 106.78953 | 27178 ft | 458 kts | 203° |
| 2026-04-28 13:04 | 29.25502 | 106.77637 | 27645 ft | 462 kts | 203° |
| 2026-04-28 13:05 | 29.22516 | 106.76322 | 28157 ft | 464 kts | 203° |
| 2026-04-28 13:05 | 29.19517 | 106.74999 | 28582 ft | 467 kts | 203° |
| 2026-04-28 13:05 | 29.16460 | 106.73651 | 29012 ft | 470 kts | 203° |
| 2026-04-28 13:05 | 29.13385 | 106.72298 | 29503 ft | 472 kts | 203° |
| 2026-04-28 13:06 | 29.10300 | 106.70943 | 29919 ft | 475 kts | 203° |
| 2026-04-28 13:06 | 29.07253 | 106.69605 | 30297 ft | 477 kts | 203° |
| 2026-04-28 13:06 | 29.04144 | 106.68241 | 30720 ft | 477 kts | 203° |
| 2026-04-28 13:06 | 29.01028 | 106.66873 | 31058 ft | 479 kts | 203° |
| 2026-04-28 13:07 | 28.97917 | 106.65508 | 31573 ft | 476 kts | 204° |
| 2026-04-28 13:07 | 28.94830 | 106.64156 | 32173 ft | 472 kts | 204° |
| 2026-04-28 13:07 | 28.91807 | 106.62832 | 32722 ft | 469 kts | 204° |
| 2026-04-28 13:07 | 28.88760 | 106.61497 | 33176 ft | 468 kts | 204° |
| 2026-04-28 13:08 | 28.85725 | 106.60169 | 33630 ft | 467 kts | 204° |
| 2026-04-28 13:08 | 28.82691 | 106.58843 | 34122 ft | 464 kts | 204° |
| 2026-04-28 13:08 | 28.79676 | 106.57527 | 34574 ft | 461 kts | 205° |
| 2026-04-28 13:08 | 28.76719 | 106.56241 | 35024 ft | 458 kts | 204° |
| 2026-04-28 13:09 | 28.73656 | 106.55177 | 35471 ft | 460 kts | 198° |
| 2026-04-28 13:09 | 28.70502 | 106.54475 | 35876 ft | 462 kts | 194° |
| 2026-04-28 13:09 | 28.67307 | 106.54028 | 36252 ft | 464 kts | 191° |
| 2026-04-28 13:09 | 28.64063 | 106.53915 | 36608 ft | 467 kts | 187° |
| 2026-04-28 13:10 | 28.60810 | 106.53931 | 36937 ft | 467 kts | 186° |
| 2026-04-28 13:10 | 28.57594 | 106.53966 | 37134 ft | 469 kts | 187° |
| 2026-04-28 13:10 | 28.54322 | 106.53999 | 37162 ft | 472 kts | 187° |
| 2026-04-28 13:11 | 28.47901 | 106.54042 | 37188 ft | 467 kts | 187° |
| 2026-04-28 13:11 | 28.41410 | 106.54057 | 37212 ft | 465 kts | 187° |
| 2026-04-28 13:12 | 28.34957 | 106.54063 | 37225 ft | 466 kts | 187° |
| 2026-04-28 13:12 | 28.28472 | 106.54070 | 37218 ft | 466 kts | 187° |
| 2026-04-28 13:13 | 28.21962 | 106.54081 | 37206 ft | 467 kts | 188° |
| 2026-04-28 13:13 | 28.15615 | 106.53561 | 37213 ft | 446 kts | 205° |
| 2026-04-28 13:13 | 28.12867 | 106.52056 | 37222 ft | 431 kts | 221° |
| 2026-04-28 13:14 | 28.10586 | 106.49875 | 37215 ft | 428 kts | 230° |
| 2026-04-28 13:14 | 28.07220 | 106.44432 | 37211 ft | 424 kts | 250° |
| 2026-04-28 13:15 | 28.05211 | 106.38083 | 37223 ft | 429 kts | 251° |
| 2026-04-28 13:15 | 28.03187 | 106.31734 | 37239 ft | 431 kts | 251° |
| 2026-04-28 13:16 | 28.01098 | 106.25399 | 37225 ft | 430 kts | 250° |
| 2026-04-28 13:16 | 27.98985 | 106.19054 | 37233 ft | 427 kts | 250° |
| 2026-04-28 13:17 | 27.96907 | 106.12826 | 37227 ft | 424 kts | 251° |
| 2026-04-28 13:17 | 27.94844 | 106.06574 | 37254 ft | 422 kts | 251° |
| 2026-04-28 13:18 | 27.92805 | 106.00367 | 37230 ft | 423 kts | 251° |
| 2026-04-28 13:18 | 27.90752 | 105.94137 | 37240 ft | 423 kts | 251° |
| 2026-04-28 13:19 | 27.88690 | 105.87890 | 37249 ft | 423 kts | 251° |
| 2026-04-28 13:19 | 27.86633 | 105.81677 | 37243 ft | 423 kts | 251° |
| 2026-04-28 13:20 | 27.84565 | 105.75438 | 37254 ft | 424 kts | 251° |
| 2026-04-28 13:20 | 27.82501 | 105.69221 | 37259 ft | 424 kts | 250° |
| 2026-04-28 13:21 | 27.80418 | 105.62958 | 37263 ft | 425 kts | 250° |
| 2026-04-28 13:21 | 27.78328 | 105.56692 | 37273 ft | 425 kts | 250° |
| 2026-04-28 13:22 | 27.76247 | 105.50476 | 37247 ft | 425 kts | 250° |
| 2026-04-28 13:22 | 27.74164 | 105.44255 | 37290 ft | 424 kts | 251° |
| 2026-04-28 13:23 | 27.72069 | 105.38023 | 37260 ft | 424 kts | 250° |
| 2026-04-28 13:23 | 27.69985 | 105.31811 | 37293 ft | 425 kts | 250° |
| 2026-04-28 13:24 | 27.67875 | 105.25542 | 37265 ft | 426 kts | 250° |
| 2026-04-28 13:24 | 27.65775 | 105.19315 | 37264 ft | 426 kts | 250° |
| 2026-04-28 13:25 | 27.63325 | 105.13266 | 37296 ft | 428 kts | 241° |
| 2026-04-28 13:25 | 27.59871 | 105.07768 | 37271 ft | 431 kts | 233° |
| 2026-04-28 13:26 | 27.55626 | 105.02926 | 37301 ft | 434 kts | 228° |
| 2026-04-28 13:26 | 27.51240 | 104.98229 | 37299 ft | 434 kts | 228° |
| 2026-04-28 13:27 | 27.46879 | 104.93525 | 37266 ft | 434 kts | 228° |
| 2026-04-28 13:27 | 27.42556 | 104.88833 | 37297 ft | 433 kts | 228° |
| 2026-04-28 13:28 | 27.38224 | 104.84119 | 37297 ft | 432 kts | 228° |
| 2026-04-28 13:28 | 27.33931 | 104.79453 | 37296 ft | 431 kts | 228° |
| 2026-04-28 13:29 | 27.29599 | 104.74766 | 37287 ft | 431 kts | 228° |
| 2026-04-28 13:29 | 27.25269 | 104.70072 | 37289 ft | 432 kts | 228° |
| 2026-04-28 13:30 | 27.20949 | 104.65415 | 37299 ft | 432 kts | 228° |